Time;durP1;ratioP1;P1;durP2;ratioP2;P2;SDS_P1;SDS_P2;PMS_P1;PMS_P2;Temp;Humidity;BMP_temperature;BMP_pressure;BME280_temperature;BME280_humidity;BME280_pressure;Samples;Min_cycle;Max_cycle;Signal;HPM_P1;HPM_P2
2022/03/01 00:00:35;;;;;;;13.23;8.77;;;;;;;3.57;45.80;101225.63;1087176;54;20042;-77
2022/03/01 00:01:39;;;;;;;12.88;7.80;;;;;;;3.55;45.82;101224.81;1086949;54;20735;-76
2022/03/01 00:02:44;;;;;;;12.68;8.23;;;;;;;3.49;46.12;101224.25;1086818;54;20058;-77
2022/03/01 00:03:45;;;;;;;15.57;9.73;;;;;;;3.45;46.33;101227.97;1087476;47;20587;-77
2022/03/01 00:04:50;;;;;;;16.23;9.32;;;;;;;3.41;46.29;101235.16;1087434;54;20061;-77
2022/03/01 00:05:53;;;;;;;14.07;8.82;;;;;;;3.39;46.38;101224.66;1087531;54;20050;-77
2022/03/01 00:07:00;;;;;;;13.38;8.85;;;;;;;3.35;46.49;101227.50;1094134;39;20802;-77
2022/03/01 00:08:01;;;;;;;15.98;8.60;;;;;;;3.32;46.45;101227.66;1087594;54;20035;-77
2022/03/01 00:09:06;;;;;;;15.82;9.80;;;;;;;3.33;46.59;101230.25;1087892;54;20034;-77
2022/03/01 00:10:10;;;;;;;13.10;9.45;;;;;;;3.30;46.44;101226.88;1088083;46;20031;-76
2022/03/01 00:11:14;;;;;;;15.07;8.55;;;;;;;3.31;46.38;101234.72;1087864;54;20034;-77
2022/03/01 00:12:15;;;;;;;12.35;8.25;;;;;;;3.26;46.37;101227.00;1087852;54;20035;-77
2022/03/01 00:13:20;;;;;;;14.38;8.48;;;;;;;3.23;46.27;101235.06;1090391;39;20528;-77
2022/03/01 00:14:21;;;;;;;14.68;8.50;;;;;;;3.25;46.51;101233.22;1087690;54;20649;-77
2022/03/01 00:15:26;;;;;;;14.18;8.88;;;;;;;3.30;46.55;101229.53;1088003;54;20045;-77
2022/03/01 00:16:28;;;;;;;15.40;9.55;;;;;;;3.17;46.50;101227.41;1090366;39;20517;-77
2022/03/01 00:17:32;;;;;;;14.70;9.10;;;;;;;3.17;46.39;101223.91;1087894;54;20031;-76
2022/03/01 00:18:33;;;;;;;15.90;9.25;;;;;;;3.10;46.62;101228.63;1087514;54;20042;-77
2022/03/01 00:19:38;;;;;;;14.50;9.40;;;;;;;3.04;46.70;101231.50;1087479;54;20045;-77
2022/03/01 00:20:39;;;;;;;13.77;8.63;;;;;;;3.01;46.80;101221.94;1087958;54;20031;-76
2022/03/01 00:21:44;;;;;;;15.68;9.18;;;;;;;3.07;46.75;101226.94;1087927;54;20102;-77
2022/03/01 00:22:48;;;;;;;16.30;9.77;;;;;;;3.04;46.84;101223.59;1087950;54;20109;-80
2022/03/01 00:23:52;;;;;;;17.27;9.90;;;;;;;3.11;46.54;101235.63;1087826;54;20030;-77
2022/03/01 00:24:54;;;;;;;15.30;8.90;;;;;;;3.16;46.48;101232.78;1087930;54;20042;-77
2022/03/01 00:25:58;;;;;;;13.63;7.97;;;;;;;3.21;46.56;101226.34;1087963;54;20034;-77
2022/03/01 00:27:00;;;;;;;12.20;7.65;;;;;;;3.25;46.42;101229.72;1087941;54;20035;-76
2022/03/01 00:28:04;;;;;;;10.15;6.65;;;;;;;3.28;46.19;101230.44;1089817;39;20542;-77
2022/03/01 00:29:06;;;;;;;11.30;6.78;;;;;;;3.29;46.46;101226.00;1087855;54;20034;-80
2022/03/01 00:30:11;;;;;;;11.43;7.68;;;;;;;3.27;46.39;101231.38;1087821;54;20050;-77
2022/03/01 00:31:13;;;;;;;16.98;9.52;;;;;;;3.18;46.25;101228.25;1088827;39;20280;-77
2022/03/01 00:32:18;;;;;;;14.75;8.80;;;;;;;3.17;46.40;101232.72;1087924;54;20057;-78
2022/03/01 00:33:19;;;;;;;15.27;9.48;;;;;;;3.10;46.51;101228.63;1088049;46;20034;-77
2022/03/01 00:34:23;;;;;;;15.70;9.38;;;;;;;3.07;46.43;101231.38;1087890;54;20034;-77
2022/03/01 00:35:25;;;;;;;14.02;8.32;;;;;;;3.09;46.51;101234.81;1087422;54;20042;-77
2022/03/01 00:36:29;;;;;;;15.65;8.65;;;;;;;3.07;46.46;101228.75;1087649;54;20041;-79
2022/03/01 00:37:31;;;;;;;15.13;8.32;;;;;;;3.10;46.35;101224.19;1087810;54;20019;-78
2022/03/01 00:38:38;;;;;;;13.70;8.43;;;;;;;3.10;46.28;101224.19;1087729;54;20030;-79
2022/03/01 00:39:39;;;;;;;13.82;7.93;;;;;;;3.14;46.56;101230.19;1087845;54;20046;-77
2022/03/01 00:40:44;;;;;;;15.48;8.23;;;;;;;3.14;46.28;101230.19;1087826;54;20096;-76
2022/03/01 00:41:47;;;;;;;12.02;8.27;;;;;;;3.14;46.22;101227.53;1087877;54;20038;-76
2022/03/01 00:42:55;;;;;;;14.07;8.80;;;;;;;3.13;46.13;101231.09;1088043;54;20030;-78
2022/03/01 00:43:56;;;;;;;13.00;7.88;;;;;;;3.15;46.15;101229.25;1087927;54;20027;-78
2022/03/01 00:45:01;;;;;;;13.50;7.80;;;;;;;3.14;46.26;101230.19;1090077;46;20090;-77
2022/03/01 00:46:02;;;;;;;14.20;8.68;;;;;;;3.12;46.40;101226.75;1089867;39;20638;-77
2022/03/01 00:47:07;;;;;;;14.30;8.15;;;;;;;3.07;46.43;101223.47;1087780;54;20031;-76
2022/03/01 00:48:09;;;;;;;16.17;9.85;;;;;;;3.01;46.41;101226.38;1087837;39;20542;-77
2022/03/01 00:49:13;;;;;;;16.70;9.88;;;;;;;2.84;46.89;101232.38;1087326;54;20567;-78
2022/03/01 00:50:15;;;;;;;15.73;9.48;;;;;;;2.74;47.15;101226.66;1088025;46;20035;-76
2022/03/01 00:51:19;;;;;;;14.90;9.30;;;;;;;2.70;47.30;101228.53;1087496;54;20038;-77
2022/03/01 00:52:23;;;;;;;14.88;8.90;;;;;;;2.73;47.37;101222.28;1086947;54;20733;-76
2022/03/01 00:53:25;;;;;;;14.32;8.80;;;;;;;2.72;47.39;101228.50;1087147;54;20055;-77
2022/03/01 00:54:32;;;;;;;15.55;8.95;;;;;;;2.77;47.08;101226.50;1087350;54;20043;-77
2022/03/01 00:55:36;;;;;;;13.05;7.90;;;;;;;2.82;47.08;101224.53;1087186;54;20063;-77
2022/03/01 00:56:38;;;;;;;14.85;8.70;;;;;;;2.84;47.03;101219.19;1087345;54;20042;-77
2022/03/01 00:57:42;;;;;;;14.77;8.95;;;;;;;2.82;46.91;101229.81;1088138;39;20488;-78
2022/03/01 00:58:47;;;;;;;13.05;8.50;;;;;;;2.87;46.91;101222.53;1087053;54;20030;-76
2022/03/01 00:59:49;;;;;;;13.55;8.30;;;;;;;2.91;46.83;101217.97;1087126;54;20626;-77
2022/03/01 01:00:53;;;;;;;12.27;7.65;;;;;;;2.94;46.71;101229.28;1087268;54;20034;-76
2022/03/01 01:01:54;;;;;;;15.10;8.32;;;;;;;2.90;46.79;101225.06;1087171;54;20053;-76
2022/03/01 01:02:59;;;;;;;18.00;9.65;;;;;;;2.80;47.09;101221.09;1087125;54;20038;-77
2022/03/01 01:04:00;;;;;;;13.63;8.95;;;;;;;2.79;47.16;101214.94;1087077;54;20046;-77
2022/03/01 01:05:05;;;;;;;13.85;8.70;;;;;;;2.80;47.09;101213.19;1088000;39;20545;-77
2022/03/01 01:06:06;;;;;;;14.27;8.20;;;;;;;2.78;46.93;101223.81;1087120;54;20067;-77
2022/03/01 01:07:11;;;;;;;14.52;8.57;;;;;;;2.74;47.20;101222.22;1087040;54;20046;-77
2022/03/01 01:08:12;;;;;;;14.73;9.30;;;;;;;2.74;47.18;101219.56;1086909;54;20046;-77
2022/03/01 01:09:16;;;;;;;15.73;9.18;;;;;;;2.78;47.29;101220.31;1087107;54;20050;-77
2022/03/01 01:10:21;;;;;;;14.40;8.57;;;;;;;2.77;47.10;101210.66;1087805;54;20042;-77
2022/03/01 01:11:26;;;;;;;13.88;8.20;;;;;;;2.78;47.08;101207.97;1087848;54;20722;-76
2022/03/01 01:12:27;;;;;;;12.27;7.07;;;;;;;2.81;47.04;101206.97;1087883;54;20042;-76
2022/03/01 01:13:32;;;;;;;12.10;7.53;;;;;;;2.79;46.92;101216.75;1087790;54;20034;-78
2022/03/01 01:14:34;;;;;;;12.80;7.45;;;;;;;2.79;47.07;101224.66;1087714;54;20034;-77
2022/03/01 01:15:38;;;;;;;12.00;7.38;;;;;;;2.81;47.04;101207.81;1087880;54;20572;-77
2022/03/01 01:16:40;;;;;;;15.10;9.10;;;;;;;2.74;47.18;101214.28;1087825;54;20039;-77
2022/03/01 01:17:45;;;;;;;15.75;9.02;;;;;;;2.71;47.05;101210.94;1087672;54;20038;-76
2022/03/01 01:18:46;;;;;;;13.85;8.63;;;;;;;2.68;47.27;101208.41;1087777;54;20073;-77
2022/03/01 01:19:51;;;;;;;15.07;9.32;;;;;;;2.64;46.96;101205.06;1087530;54;20049;-77
2022/03/01 01:20:55;;;;;;;15.80;9.15;;;;;;;2.59;47.18;101207.88;1087820;54;20042;-77
2022/03/01 01:23:17;;;;;;;14.65;9.13;;;;;;;2.47;47.42;101201.34;1087771;54;20069;-77
2022/03/01 01:24:18;;;;;;;16.10;9.90;;;;;;;2.44;47.62;101203.25;1087640;54;20038;-77
2022/03/01 01:25:26;;;;;;;17.23;9.55;;;;;;;2.39;47.50;101197.28;1087430;54;20049;-77
2022/03/01 01:26:28;;;;;;;16.00;9.60;;;;;;;2.38;47.50;101204.38;1087534;54;20741;-77
2022/03/01 01:27:32;;;;;;;14.38;9.18;;;;;;;2.41;47.60;101203.38;1087786;54;20027;-78
2022/03/01 01:28:36;;;;;;;13.85;8.10;;;;;;;2.45;47.33;101207.63;1090059;39;20691;-77
2022/03/01 01:29:38;;;;;;;16.65;8.63;;;;;;;2.49;47.48;101198.63;1087790;54;20043;-77
2022/03/01 01:30:42;;;;;;;13.95;8.82;;;;;;;2.46;47.36;101196.09;1088294;39;20528;-77
2022/03/01 01:31:44;;;;;;;15.77;8.90;;;;;;;2.52;47.24;101195.88;1088246;39;20766;-77
2022/03/01 01:32:49;;;;;;;13.27;7.82;;;;;;;2.55;47.25;101198.38;1087881;54;20030;-77
2022/03/01 01:33:50;;;;;;;14.52;8.35;;;;;;;2.58;47.12;101192.13;1089083;46;20083;-77
2022/03/01 01:34:55;;;;;;;14.90;8.05;;;;;;;2.59;47.12;101199.13;1087838;54;20035;-77
2022/03/01 01:35:59;;;;;;;14.02;9.05;;;;;;;2.60;47.28;101198.16;1087535;54;20082;-76
2022/03/01 01:37:01;;;;;;;17.17;9.27;;;;;;;2.55;47.18;101200.16;1087797;54;20060;-77
2022/03/01 01:38:06;;;;;;;18.90;10.18;;;;;;;2.44;47.38;101200.63;1087734;54;20043;-77
2022/03/01 01:39:08;;;;;;;15.77;10.02;;;;;;;2.35;47.90;101196.56;1087694;54;20069;-77
2022/03/01 01:40:15;;;;;;;16.95;10.02;;;;;;;2.33;47.74;101199.28;1087819;54;20049;-76
2022/03/01 01:41:22;;;;;;;16.75;9.90;;;;;;;2.32;47.87;101200.19;1087805;54;20043;-77
2022/03/01 01:42:24;;;;;;;15.48;9.38;;;;;;;2.30;47.86;101196.75;1087427;54;20049;-77
2022/03/01 01:43:28;;;;;;;17.30;10.18;;;;;;;2.27;48.15;101191.59;1087545;54;20045;-76
2022/03/01 01:44:30;;;;;;;14.70;8.35;;;;;;;2.34;47.90;101200.13;1087809;54;20030;-77
2022/03/01 01:45:35;;;;;;;18.00;9.55;;;;;;;2.32;47.98;101194.94;1088151;46;20041;-77
2022/03/01 01:46:36;;;;;;;16.52;10.13;;;;;;;2.28;48.09;101197.75;1087774;54;20039;-77
2022/03/01 01:47:41;;;;;;;18.00;10.23;;;;;;;2.24;48.58;101199.66;1087758;54;20035;-76
2022/03/01 01:48:42;;;;;;;16.85;9.93;;;;;;;2.24;48.46;101199.66;1087761;54;20046;-78
2022/03/01 01:49:47;;;;;;;15.32;9.20;;;;;;;2.21;48.80;101202.41;1087690;54;20030;-76
2022/03/01 01:50:51;;;;;;;16.63;10.30;;;;;;;2.15;49.11;101187.69;1087745;54;20030;-77
2022/03/01 01:51:54;;;;;;;17.70;10.52;;;;;;;2.13;48.87;101202.72;1087721;54;20034;-77
2022/03/01 01:52:59;;;;;;;18.52;11.45;;;;;;;2.08;49.12;101199.41;1087755;54;20038;-77
2022/03/01 01:54:00;;;;;;;16.75;10.23;;;;;;;2.08;48.88;101211.78;1087697;54;20034;-78
2022/03/01 01:55:07;;;;;;;16.42;9.55;;;;;;;2.06;48.85;101200.41;1087758;54;20043;-76
2022/03/01 01:56:08;;;;;;;17.42;10.50;;;;;;;2.01;48.91;101195.31;1087646;54;20038;-76
2022/03/01 01:57:21;;;;;;;16.13;9.50;;;;;;;2.00;48.72;101202.34;1087187;54;20043;-76
2022/03/01 01:58:22;;;;;;;16.33;10.48;;;;;;;1.94;49.18;101205.25;1087323;54;20071;-77
2022/03/01 01:59:27;;;;;;;17.65;10.52;;;;;;;1.93;48.92;101203.53;1086892;54;20035;-76
2022/03/01 02:00:31;;;;;;;17.33;10.25;;;;;;;1.88;49.02;101205.50;1087423;54;20733;-76
2022/03/01 02:01:33;;;;;;;15.50;9.50;;;;;;;1.85;49.14;101201.19;1087565;54;20050;-77
2022/03/01 02:02:37;;;;;;;17.08;9.77;;;;;;;1.89;49.17;101201.06;1087492;54;20083;-76
2022/03/01 02:03:39;;;;;;;19.33;11.27;;;;;;;1.86;49.20;101207.34;1087744;54;20699;-77
2022/03/01 02:04:43;;;;;;;16.13;9.60;;;;;;;1.87;48.91;101203.78;1088622;39;20551;-77
2022/03/01 02:05:45;;;;;;;20.42;11.40;;;;;;;1.93;49.01;101203.53;1087670;54;20638;-77
2022/03/01 02:06:53;;;;;;;15.63;9.18;;;;;;;1.95;48.90;101195.53;1087799;54;20034;-77
2022/03/01 02:07:56;;;;;;;15.57;9.73;;;;;;;1.98;48.75;101203.34;1087803;54;20102;-77
2022/03/01 02:09:00;;;;;;;17.85;9.43;;;;;;;2.02;48.68;101202.31;1087683;54;20038;-77
2022/03/01 02:10:02;;;;;;;15.15;9.20;;;;;;;2.07;48.54;101210.88;1087779;54;20046;-77
2022/03/01 02:11:08;;;;;;;14.57;7.97;;;;;;;2.10;48.35;101205.50;1087699;54;20041;-77
2022/03/01 02:12:10;;;;;;;14.55;8.77;;;;;;;2.14;48.26;101195.69;1087793;54;20034;-79
2022/03/01 02:13:17;;;;;;;13.55;8.57;;;;;;;2.13;48.32;101193.97;1087716;54;20038;-77
2022/03/01 02:14:18;;;;;;;14.75;8.82;;;;;;;2.14;48.34;101200.97;1087597;54;20624;-77
2022/03/01 02:15:23;;;;;;;14.93;9.25;;;;;;;2.14;48.35;101190.41;1087488;54;20034;-76
2022/03/01 02:16:24;;;;;;;15.15;8.73;;;;;;;2.17;48.23;101196.41;1087505;54;20690;-76
2022/03/01 02:17:30;;;;;;;16.15;9.93;;;;;;;2.08;48.84;101195.94;1087735;54;20018;-76
2022/03/01 02:18:32;;;;;;;16.30;10.43;;;;;;;2.02;48.74;101197.88;1090372;39;20618;-76
2022/03/01 02:19:36;;;;;;;22.30;11.63;;;;;;;1.91;48.98;101202.72;1087618;54;20057;-77
2022/03/01 02:20:43;;;;;;;16.55;10.45;;;;;;;1.82;49.50;101200.44;1087728;54;20039;-77
2022/03/01 02:21:46;;;;;;;17.30;10.57;;;;;;;1.77;49.55;101197.16;1087754;54;20072;-77
2022/03/01 02:22:56;;;;;;;17.85;10.85;;;;;;;1.73;49.84;101201.69;1088337;46;20067;-77
2022/03/01 02:23:58;;;;;;;19.63;11.13;;;;;;;1.68;49.78;101209.78;1087654;54;20714;-77
2022/03/01 02:25:02;;;;;;;16.88;10.85;;;;;;;1.63;49.72;101193.25;1087795;54;20055;-77
2022/03/01 02:26:06;;;;;;;18.58;10.82;;;;;;;1.63;49.62;101201.16;1087733;54;20031;-76
2022/03/01 02:27:08;;;;;;;17.90;11.20;;;;;;;1.61;49.89;101205.63;1087778;54;20034;-76
2022/03/01 02:28:12;;;;;;;16.85;10.70;;;;;;;1.58;49.89;101203.13;1087784;54;20651;-77
2022/03/01 02:29:14;;;;;;;17.27;9.82;;;;;;;1.58;49.84;101203.13;1087618;54;20042;-77
2022/03/01 02:30:18;;;;;;;17.35;9.88;;;;;;;1.56;49.88;101208.44;1087767;54;20060;-77
2022/03/01 02:31:19;;;;;;;16.35;10.00;;;;;;;1.54;49.99;101206.78;1087715;54;20034;-77
2022/03/01 02:32:24;;;;;;;18.08;10.05;;;;;;;1.50;49.91;101203.41;1087379;54;20034;-77
2022/03/01 02:33:28;;;;;;;16.60;9.98;;;;;;;1.49;49.86;101203.47;1087614;54;20031;-77
2022/03/01 02:34:30;;;;;;;18.42;9.75;;;;;;;1.46;50.18;101203.59;1087601;54;20038;-76
2022/03/01 02:35:34;;;;;;;18.88;10.35;;;;;;;1.44;50.09;101211.56;1087357;54;20034;-76
2022/03/01 02:36:38;;;;;;;18.63;10.75;;;;;;;1.40;50.23;101210.81;1086909;54;20031;-76
2022/03/01 02:37:43;;;;;;;18.65;11.27;;;;;;;1.40;50.22;101215.22;1088650;39;20786;-77
2022/03/01 02:38:45;;;;;;;17.02;9.65;;;;;;;1.46;50.08;101211.50;1087242;54;20348;-76
2022/03/01 02:39:49;;;;;;;16.67;9.85;;;;;;;1.46;50.12;101215.00;1087127;54;20031;-76
2022/03/01 02:40:51;;;;;;;18.08;9.90;;;;;;;1.53;49.97;101215.63;1088267;39;20554;-77
2022/03/01 02:41:55;;;;;;;16.67;9.52;;;;;;;1.56;49.73;101218.13;1087264;54;20053;-77
2022/03/01 02:42:57;;;;;;;14.55;8.60;;;;;;;1.59;49.70;101214.53;1088951;39;20814;-78
2022/03/01 02:44:02;;;;;;;16.83;9.90;;;;;;;1.63;49.82;101222.25;1087680;54;20063;-77
2022/03/01 02:45:05;;;;;;;15.77;9.23;;;;;;;1.65;49.49;101216.94;1090139;39;20658;-77
2022/03/01 02:46:09;;;;;;;16.48;9.27;;;;;;;1.71;49.57;101214.06;1087363;54;20098;-77
2022/03/01 02:47:11;;;;;;;13.23;8.00;;;;;;;1.74;49.38;101218.34;1087249;54;20034;-77
2022/03/01 02:48:15;;;;;;;16.40;8.45;;;;;;;1.74;49.64;101215.72;1087367;54;20042;-77
2022/03/01 02:49:17;;;;;;;17.27;9.15;;;;;;;1.77;49.54;101219.09;1087267;54;20039;-77
2022/03/01 02:50:21;;;;;;;15.30;9.10;;;;;;;1.78;49.30;101218.16;1087297;54;20062;-77
2022/03/01 02:51:23;;;;;;;15.68;8.80;;;;;;;1.84;49.21;101214.44;1087289;54;20037;-77
2022/03/01 02:52:29;;;;;;;14.38;8.70;;;;;;;1.76;49.71;101211.25;1087340;54;20643;-77
2022/03/01 02:53:31;;;;;;;14.23;8.13;;;;;;;1.76;49.75;101203.34;1087395;54;20039;-77
2022/03/01 02:54:36;;;;;;;17.17;9.25;;;;;;;1.75;49.92;101209.53;1087227;54;20030;-77
2022/03/01 02:55:40;;;;;;;15.02;9.52;;;;;;;1.70;50.20;101207.06;1087301;54;20053;-77
2022/03/01 02:56:42;;;;;;;17.85;9.98;;;;;;;1.66;50.54;101205.44;1087330;54;21027;-77
2022/03/01 02:57:46;;;;;;;16.40;9.05;;;;;;;1.66;50.34;101201.06;1087373;54;20104;-79
2022/03/01 02:58:47;;;;;;;15.43;9.13;;;;;;;1.65;50.66;101199.34;1087411;54;20761;-77
2022/03/01 02:59:52;;;;;;;16.38;8.90;;;;;;;1.62;50.87;101201.22;1087193;54;20033;-76
2022/03/01 03:00:53;;;;;;;15.80;10.35;;;;;;;1.57;51.05;101206.69;1087307;54;21381;-78
2022/03/01 03:01:58;;;;;;;17.75;10.75;;;;;;;1.51;51.25;101202.50;1087257;54;20620;-77
2022/03/01 03:03:00;;;;;;;17.23;10.20;;;;;;;1.46;51.33;101193.91;1087229;54;20026;-77
2022/03/01 03:04:04;;;;;;;16.52;9.43;;;;;;;1.48;51.14;101193.84;1087247;54;20065;-77
2022/03/01 03:05:07;;;;;;;16.85;9.98;;;;;;;1.47;51.37;101200.03;1087231;54;20038;-76
2022/03/01 03:06:11;;;;;;;16.80;10.13;;;;;;;1.48;51.47;101197.34;1087389;54;20042;-76
2022/03/01 03:07:13;;;;;;;13.68;8.63;;;;;;;1.53;51.19;101199.78;1087237;54;20046;-76
2022/03/01 03:08:20;;;;;;;17.98;10.80;;;;;;;1.52;51.10;101203.34;1087315;54;20042;-76
2022/03/01 03:09:23;;;;;;;15.32;9.88;;;;;;;1.51;50.96;101204.28;1087170;54;21098;-77
2022/03/01 03:10:27;;;;;;;17.02;9.60;;;;;;;1.51;51.03;101201.66;1087329;54;20083;-77
2022/03/01 03:11:29;;;;;;;17.65;10.00;;;;;;;1.52;50.90;101200.72;1087518;54;20042;-76
2022/03/01 03:12:33;;;;;;;15.70;9.95;;;;;;;1.50;51.01;101206.06;1087743;54;20034;-77
2022/03/01 03:13:35;;;;;;;15.48;9.80;;;;;;;1.45;50.83;101202.75;1087364;54;20034;-77
2022/03/01 03:14:39;;;;;;;18.85;9.93;;;;;;;1.42;51.12;101202.00;1087681;54;20031;-77
2022/03/01 03:15:41;;;;;;;18.77;10.18;;;;;;;1.39;50.94;101210.84;1092092;39;20618;-77
2022/03/01 03:16:45;;;;;;;17.92;10.00;;;;;;;1.30;50.76;101196.28;1087571;54;20704;-76
2022/03/01 03:17:49;;;;;;;14.85;9.77;;;;;;;1.30;50.92;101206.81;1088989;39;20454;-77
2022/03/01 03:18:53;;;;;;;17.70;9.75;;;;;;;1.29;51.01;101205.09;1088071;46;20101;-77
2022/03/01 03:19:54;;;;;;;15.55;10.10;;;;;;;1.32;50.77;101204.09;1087574;54;20038;-77
2022/03/01 03:20:59;;;;;;;15.63;8.90;;;;;;;1.39;50.49;101203.84;1088495;46;20026;-77
2022/03/01 03:22:00;;;;;;;15.48;9.00;;;;;;;1.43;50.58;101203.69;1087484;54;20018;-76
2022/03/01 03:23:05;;;;;;;14.13;8.90;;;;;;;1.42;50.70;101202.00;1087249;54;20129;-77
2022/03/01 03:24:09;;;;;;;17.30;9.80;;;;;;;1.35;50.38;101199.56;1087197;54;20636;-77
2022/03/01 03:25:13;;;;;;;16.27;10.82;;;;;;;1.28;50.59;101206.00;1087229;54;20030;-77
2022/03/01 03:26:15;;;;;;;18.33;10.20;;;;;;;1.23;50.72;101202.66;1087215;54;20030;-76
2022/03/01 03:27:19;;;;;;;19.08;10.35;;;;;;;1.15;50.69;101204.72;1087192;54;20067;-76
2022/03/01 03:28:21;;;;;;;19.65;11.05;;;;;;;1.08;50.87;101204.94;1087071;54;20038;-77
2022/03/01 03:29:25;;;;;;;18.58;10.52;;;;;;;1.06;51.27;101200.66;1087068;47;20924;-79
2022/03/01 03:30:27;;;;;;;17.77;10.45;;;;;;;1.04;51.08;101202.47;1087185;54;20049;-76
2022/03/01 03:31:33;;;;;;;16.50;10.32;;;;;;;1.03;51.24;101203.38;1086988;54;20034;-76
2022/03/01 03:32:34;;;;;;;18.27;10.95;;;;;;;1.03;51.20;101196.38;1087179;54;20038;-76
2022/03/01 03:33:38;;;;;;;17.02;9.40;;;;;;;1.04;51.04;101198.06;1087633;54;20030;-76
2022/03/01 03:34:40;;;;;;;16.10;9.75;;;;;;;1.12;51.11;101204.84;1087491;54;20042;-76
2022/03/01 03:35:44;;;;;;;17.02;9.57;;;;;;;1.17;50.92;101202.88;1087484;54;20702;-76
2022/03/01 03:36:47;;;;;;;17.63;9.90;;;;;;;1.14;50.79;101201.22;1087733;46;20053;-76
2022/03/01 03:37:51;;;;;;;14.70;9.32;;;;;;;1.20;50.52;101197.53;1087349;54;20120;-76
2022/03/01 03:38:52;;;;;;;17.27;10.73;;;;;;;1.14;50.36;101197.72;1087498;54;20031;-77
2022/03/01 03:39:59;;;;;;;16.75;9.98;;;;;;;1.13;50.84;101199.50;1087300;54;20034;-77
2022/03/01 03:41:01;;;;;;;17.00;9.43;;;;;;;1.07;50.87;101195.31;1087616;54;20031;-76
2022/03/01 03:42:06;;;;;;;19.10;9.93;;;;;;;1.10;50.76;101196.97;1087213;54;20034;-81
2022/03/01 03:43:08;;;;;;;14.75;9.95;;;;;;;1.14;50.61;101200.34;1086494;54;20041;-80
2022/03/01 03:44:12;;;;;;;16.92;9.45;;;;;;;1.15;50.52;101192.41;1086471;54;20031;-80
2022/03/01 03:45:13;;;;;;;15.60;9.02;;;;;;;1.22;50.48;101190.44;1086651;54;20054;-81
2022/03/01 03:46:20;;;;;;;15.07;8.68;;;;;;;1.21;50.47;101188.72;1087022;54;20034;-80
2022/03/01 03:47:22;;;;;;;15.35;9.43;;;;;;;1.23;50.42;101187.72;1088660;39;20750;-80
2022/03/01 03:48:26;;;;;;;13.20;8.27;;;;;;;1.24;50.52;101184.19;1086579;54;20038;-80
2022/03/01 03:49:28;;;;;;;12.82;7.85;;;;;;;1.30;50.29;101188.38;1086230;54;20577;-79
2022/03/01 03:50:32;;;;;;;13.95;7.60;;;;;;;1.36;50.00;101180.22;1086163;54;20042;-81
2022/03/01 03:51:34;;;;;;;11.55;7.13;;;;;;;1.39;50.16;101195.94;1086261;54;20042;-80
2022/03/01 03:52:38;;;;;;;10.90;7.13;;;;;;;1.36;50.10;101185.50;1086511;39;20716;-79
2022/03/01 03:53:40;;;;;;;13.38;7.95;;;;;;;1.31;50.19;101195.34;1086008;54;20039;-80
2022/03/01 03:54:44;;;;;;;13.45;8.27;;;;;;;1.34;49.98;101187.31;1084984;54;20042;-81
2022/03/01 03:55:49;;;;;;;14.18;8.93;;;;;;;1.44;50.01;101189.59;1085383;54;20054;-80
2022/03/01 03:56:53;;;;;;;14.80;7.90;;;;;;;1.44;49.82;101194.88;1085514;54;20061;-81
2022/03/01 03:57:55;;;;;;;14.93;8.55;;;;;;;1.43;49.84;101186.13;1085259;54;20042;-79
2022/03/01 03:58:59;;;;;;;15.07;8.90;;;;;;;1.49;49.63;101187.66;1085581;47;20038;-79
2022/03/01 04:00:03;;;;;;;14.20;7.88;;;;;;;1.50;49.56;101186.75;1085619;47;20042;-81
2022/03/01 04:01:08;;;;;;;13.27;8.45;;;;;;;1.52;49.50;101192.81;1084957;54;20061;-80
2022/03/01 04:02:10;;;;;;;13.38;8.07;;;;;;;1.53;49.49;101189.25;1085498;54;20069;-80
2022/03/01 04:03:14;;;;;;;12.55;6.80;;;;;;;1.58;49.43;101197.84;1086673;31;20546;-80
2022/03/01 04:04:16;;;;;;;14.60;8.25;;;;;;;1.55;49.46;101190.06;1085300;54;20047;-78
2022/03/01 04:05:21;;;;;;;13.23;7.85;;;;;;;1.52;49.33;101187.53;1085508;47;20133;-80
2022/03/01 04:06:23;;;;;;;14.75;8.80;;;;;;;1.48;49.29;101196.50;1085851;54;20039;-79
2022/03/01 04:07:27;;;;;;;13.63;8.73;;;;;;;1.45;49.30;101191.31;1085902;54;20073;-80
2022/03/01 04:08:28;;;;;;;11.77;7.13;;;;;;;1.46;49.38;101198.31;1086230;54;20047;-79
2022/03/01 04:09:33;;;;;;;14.20;8.27;;;;;;;1.48;49.29;101197.34;1086047;54;20573;-80
2022/03/01 04:10:38;;;;;;;14.15;7.90;;;;;;;1.52;49.12;101203.34;1086593;47;20050;-79
2022/03/01 04:11:42;;;;;;;14.13;7.75;;;;;;;1.56;49.01;101200.53;1085674;54;20042;-79
2022/03/01 04:12:46;;;;;;;12.73;7.72;;;;;;;1.59;48.91;101198.72;1085759;54;20050;-78
2022/03/01 04:13:48;;;;;;;11.95;7.18;;;;;;;1.62;48.78;101201.22;1085973;54;20039;-79
2022/03/01 04:14:52;;;;;;;12.90;8.02;;;;;;;1.59;48.73;101196.94;1085775;54;20066;-81
2022/03/01 04:15:54;;;;;;;14.43;8.75;;;;;;;1.53;48.76;101199.78;1086341;54;20030;-78
2022/03/01 04:16:58;;;;;;;16.05;9.10;;;;;;;1.37;48.75;101194.28;1087586;39;20457;-78
2022/03/01 04:18:02;;;;;;;16.55;9.68;;;;;;;1.27;49.14;101200.78;1085845;54;20038;-79
2022/03/01 04:19:04;;;;;;;16.13;10.20;;;;;;;1.20;49.08;101193.09;1085529;54;20058;-78
2022/03/01 04:20:10;;;;;;;16.70;10.18;;;;;;;1.08;49.40;101198.84;1085510;54;20893;-78
2022/03/01 04:21:12;;;;;;;18.27;11.63;;;;;;;1.02;49.23;101188.50;1085607;54;20039;-77
2022/03/01 04:22:16;;;;;;;15.15;10.18;;;;;;;0.96;49.17;101186.94;1085988;39;20448;-78
2022/03/01 04:23:17;;;;;;;15.07;9.20;;;;;;;0.98;49.44;101187.75;1085657;54;20038;-80
2022/03/01 04:24:22;;;;;;;15.75;10.25;;;;;;;0.98;49.49;101190.38;1085461;54;20038;-79
2022/03/01 04:25:24;;;;;;;16.10;10.30;;;;;;;1.00;49.65;101196.47;1085941;54;20042;-78
2022/03/01 04:26:28;;;;;;;15.98;9.38;;;;;;;0.98;49.62;101187.75;1085741;54;20561;-77
2022/03/01 04:27:33;;;;;;;15.38;9.70;;;;;;;0.98;49.50;101193.03;1085183;54;20038;-77
2022/03/01 04:28:37;;;;;;;16.10;9.30;;;;;;;0.99;49.73;101194.75;1087437;39;20540;-80
2022/03/01 04:29:39;;;;;;;15.82;9.23;;;;;;;0.99;49.79;101194.75;1085931;54;20569;-82
2022/03/01 04:30:43;;;;;;;14.98;9.10;;;;;;;1.02;49.66;101188.50;1085870;54;20034;-78
2022/03/01 04:31:45;;;;;;;16.92;10.30;;;;;;;1.00;49.45;101191.19;1086084;54;20042;-78
2022/03/01 04:32:50;;;;;;;15.50;9.32;;;;;;;1.06;49.51;101183.06;1086236;54;20106;-78
2022/03/01 04:33:54;;;;;;;15.38;9.23;;;;;;;1.05;49.66;101181.34;1086027;54;20079;-78
2022/03/01 04:34:58;;;;;;;15.05;8.80;;;;;;;1.05;49.34;101186.63;1086173;54;20038;-78
2022/03/01 04:36:02;;;;;;;13.45;8.50;;;;;;;1.11;49.34;101193.44;1086909;54;20066;-78
2022/03/01 04:37:06;;;;;;;14.98;8.35;;;;;;;1.11;49.25;101185.53;1086606;54;20094;-79
2022/03/01 04:38:08;;;;;;;14.25;9.20;;;;;;;1.11;49.35;101188.16;1086949;54;20049;-79
2022/03/01 04:39:12;;;;;;;17.25;10.80;;;;;;;1.11;49.09;101188.16;1086911;54;20045;-80
2022/03/01 04:40:16;;;;;;;14.73;8.85;;;;;;;1.08;49.21;101183.03;1087060;47;20042;-81
2022/03/01 04:41:20;;;;;;;14.68;9.13;;;;;;;1.08;49.13;101178.59;1086802;54;20049;-80
2022/03/01 04:42:22;;;;;;;13.77;8.52;;;;;;;1.09;49.25;101193.50;1086978;54;20030;-78
2022/03/01 04:43:28;;;;;;;14.05;9.20;;;;;;;1.12;49.09;101183.78;1086743;54;20046;-79
2022/03/01 04:44:30;;;;;;;15.05;9.40;;;;;;;1.10;49.09;101186.44;1086977;54;20042;-80
2022/03/01 04:45:34;;;;;;;14.00;8.07;;;;;;;1.14;49.10;101187.19;1087063;54;20026;-80
2022/03/01 04:46:36;;;;;;;13.30;8.18;;;;;;;1.17;49.06;101179.19;1086680;54;20030;-79
2022/03/01 04:47:41;;;;;;;14.05;8.00;;;;;;;1.17;49.09;101187.09;1086656;54;20054;-80
2022/03/01 04:48:42;;;;;;;13.70;7.82;;;;;;;1.20;48.89;101182.56;1086961;54;20038;-82
2022/03/01 04:49:46;;;;;;;14.02;8.18;;;;;;;1.24;48.65;101178.03;1086789;47;21035;-80
2022/03/01 04:50:48;;;;;;;11.43;7.30;;;;;;;1.27;48.82;101185.84;1086908;54;20046;-81
2022/03/01 04:51:53;;;;;;;13.13;7.88;;;;;;;1.29;48.72;101181.38;1087274;47;20651;-81
2022/03/01 04:52:57;;;;;;;13.60;8.07;;;;;;;1.31;48.78;101176.91;1086759;54;20047;-80
2022/03/01 04:53:59;;;;;;;12.63;7.70;;;;;;;1.34;48.69;101179.41;1086684;54;20061;-79
2022/03/01 04:55:03;;;;;;;15.43;9.35;;;;;;;1.31;48.91;101174.28;1086261;54;20121;-80
2022/03/01 04:56:05;;;;;;;13.90;7.93;;;;;;;1.33;48.75;101188.22;1086809;54;20038;-81